createdAt,value
2018-11-23T00:01:24.179Z,-0.15
2018-11-23T00:03:53.294Z,-0.22
2018-11-23T00:06:22.370Z,-0.12
2018-11-23T00:08:52.684Z,-0.13
2018-11-23T00:11:22.601Z,-0.08
2018-11-23T00:13:51.621Z,-0.08
2018-11-23T00:16:24.903Z,0.02
2018-11-23T00:18:55.747Z,-0.10
2018-11-23T00:21:25.894Z,-0.18
2018-11-23T00:23:55.200Z,-0.15
2018-11-23T00:26:25.334Z,-0.24
2018-11-23T00:28:55.154Z,-0.33
2018-11-23T00:31:24.419Z,-0.49
2018-11-23T00:33:53.506Z,-0.35
2018-11-23T00:36:24.297Z,-0.56
2018-11-23T00:38:54.318Z,-0.37
2018-11-23T00:41:22.934Z,-0.36
2018-11-23T00:43:51.621Z,-0.44
2018-11-23T00:46:20.242Z,-0.41
2018-11-23T00:48:48.991Z,-0.51
2018-11-23T00:51:17.681Z,-0.62
2018-11-23T00:53:46.337Z,-0.54
2018-11-23T00:56:14.934Z,-0.43
2018-11-23T00:58:43.571Z,-0.43
2018-11-23T01:01:12.211Z,-0.49
2018-11-23T01:03:40.839Z,-0.52
2018-11-23T01:06:09.445Z,-0.38
2018-11-23T01:08:38.102Z,-0.25
2018-11-23T01:11:07.046Z,-0.47
2018-11-23T01:13:35.681Z,-0.41
2018-11-23T01:16:04.333Z,-0.65
2018-11-23T01:18:32.970Z,-0.42
2018-11-23T01:21:01.569Z,-0.36
2018-11-23T01:23:30.217Z,-0.46
2018-11-23T01:25:58.844Z,-0.70
2018-11-23T01:28:27.522Z,-0.64
2018-11-23T01:30:56.119Z,-0.66
2018-11-23T01:33:24.802Z,-0.72
2018-11-23T01:35:53.445Z,-0.70
2018-11-23T01:38:22.147Z,-0.63
2018-11-23T01:40:50.795Z,-0.57
2018-11-23T01:43:19.505Z,-0.77
2018-11-23T01:45:48.148Z,-0.61
2018-11-23T01:48:16.804Z,-0.76
2018-11-23T01:50:45.413Z,-0.61
2018-11-23T01:53:14.067Z,-0.64
2018-11-23T01:55:42.681Z,-0.74
2018-11-23T01:58:11.334Z,-0.61
2018-11-23T02:00:39.938Z,-0.80
2018-11-23T02:03:08.522Z,-0.67
2018-11-23T02:05:37.063Z,-0.63
2018-11-23T02:08:06.038Z,-0.83
2018-11-23T02:10:34.595Z,-0.98
2018-11-23T02:13:03.252Z,-0.92
2018-11-23T02:15:31.794Z,-0.81
2018-11-23T02:18:00.365Z,-0.79
2018-11-23T02:20:28.939Z,-0.84
2018-11-23T02:22:57.477Z,-0.67
2018-11-23T02:25:26.080Z,-0.72
2018-11-23T02:27:54.623Z,-0.79
2018-11-23T02:30:24.454Z,-0.61
2018-11-23T02:32:53.035Z,-0.73
2018-11-23T02:35:21.644Z,-0.85
2018-11-23T02:37:50.193Z,-0.92
2018-11-23T02:40:19.827Z,-0.92
2018-11-23T02:42:48.486Z,-0.88
2018-11-23T02:45:18.739Z,-0.80
2018-11-23T02:47:47.895Z,-0.71
2018-11-23T02:50:16.610Z,-1.02
2018-11-23T02:52:45.651Z,-0.91
2018-11-23T02:55:15.522Z,-0.98
2018-11-23T02:57:44.075Z,-0.84
2018-11-23T03:00:16.509Z,-1.01
2018-11-23T03:02:45.138Z,-1.05
2018-11-23T03:05:15.898Z,-1.26
2018-11-23T03:07:44.602Z,-0.91
2018-11-23T03:10:14.727Z,-0.82
2018-11-23T03:12:44.071Z,-0.94
2018-11-23T03:15:15.074Z,-0.84
2018-11-23T03:17:44.542Z,-0.99
2018-11-23T03:20:16.001Z,-0.96
2018-11-23T03:22:44.563Z,-1.04
2018-11-23T03:25:14.322Z,-0.94
2018-11-23T03:27:42.902Z,-0.88
2018-11-23T03:30:15.489Z,-0.85
2018-11-23T03:32:44.731Z,-0.78
2018-11-23T03:35:13.465Z,-0.64
2018-11-23T03:37:42.254Z,-0.77
2018-11-23T03:40:10.935Z,-0.77
2018-11-23T03:42:39.546Z,-0.64
2018-11-23T03:45:10.266Z,-0.75
2018-11-23T03:47:38.912Z,-0.86
2018-11-23T03:50:08.426Z,-0.91
2018-11-23T03:52:37.089Z,-0.82
2018-11-23T03:55:05.803Z,-0.82
2018-11-23T03:57:34.453Z,-0.84
2018-11-23T04:00:03.169Z,-0.80
2018-11-23T04:02:31.776Z,-0.79
2018-11-23T04:05:00.526Z,-0.75
2018-11-23T04:07:29.156Z,-0.83
2018-11-23T04:09:57.847Z,-0.81
2018-11-23T04:12:26.429Z,-0.81
2018-11-23T04:14:55.116Z,-0.80
2018-11-23T04:17:23.710Z,-0.82
2018-11-23T04:19:52.307Z,-0.75
2018-11-23T04:22:20.960Z,-0.86
2018-11-23T04:24:49.569Z,-1.06
2018-11-23T04:27:18.217Z,-1.26
2018-11-23T04:29:46.826Z,-1.28
2018-11-23T04:32:15.474Z,-1.27
2018-11-23T04:34:44.088Z,-1.23
2018-11-23T04:37:12.810Z,-1.21
2018-11-23T04:39:41.430Z,-1.03
2018-11-23T04:42:10.092Z,-1.07
2018-11-23T04:44:38.754Z,-0.98
2018-11-23T04:47:07.446Z,-0.83
2018-11-23T04:49:36.056Z,-1.04
2018-11-23T04:52:04.713Z,-1.14
2018-11-23T04:54:33.369Z,-1.27
2018-11-23T04:57:02.012Z,-1.23
2018-11-23T04:59:30.605Z,-1.12
2018-11-23T05:01:59.229Z,-1.23
2018-11-23T05:04:27.829Z,-1.07
2018-11-23T05:06:56.490Z,-1.01
2018-11-23T05:09:25.095Z,-1.02
2018-11-23T05:11:53.780Z,-1.14
2018-11-23T05:14:22.378Z,-1.05
2018-11-23T05:16:51.017Z,-0.99
2018-11-23T05:19:19.630Z,-1.02
2018-11-23T05:21:48.290Z,-0.90
2018-11-23T05:24:16.902Z,-0.86
2018-11-23T05:26:45.747Z,-0.83
2018-11-23T05:29:14.614Z,-0.78
2018-11-23T05:31:43.266Z,-0.73
2018-11-23T05:34:11.914Z,-0.75
2018-11-23T05:36:40.928Z,-0.81
2018-11-23T05:39:10.183Z,-0.98
2018-11-23T05:41:39.555Z,-0.97
2018-11-23T05:44:08.944Z,-1.03
2018-11-23T05:46:37.965Z,-1.32
2018-11-23T05:49:06.801Z,-1.10
2018-11-23T05:51:37.082Z,-0.96
2018-11-23T05:54:05.858Z,-0.90
2018-11-23T05:56:34.488Z,-0.89
2018-11-23T05:59:03.107Z,-0.80
2018-11-23T06:01:31.758Z,-0.76
2018-11-23T06:04:00.399Z,-1.02
2018-11-23T06:06:29.053Z,-0.98
2018-11-23T06:08:57.731Z,-0.92
2018-11-23T06:11:26.325Z,-1.10
2018-11-23T06:13:54.967Z,-1.08
2018-11-23T06:16:23.581Z,-1.00
2018-11-23T06:18:52.294Z,-0.98
2018-11-23T06:21:21.751Z,-1.01
2018-11-23T06:23:50.451Z,-1.02
2018-11-23T06:26:22.368Z,-0.83
2018-11-23T06:28:51.525Z,-0.75
2018-11-23T06:31:20.133Z,-0.91
2018-11-23T06:33:49.606Z,-0.90
2018-11-23T06:36:18.633Z,-0.79
2018-11-23T06:38:47.280Z,-0.80
2018-11-23T06:41:15.906Z,-0.95
2018-11-23T06:43:44.621Z,-0.90
2018-11-23T06:46:13.842Z,-0.80
2018-11-23T06:48:42.617Z,-0.79
2018-11-23T06:51:17.961Z,-0.89
2018-11-23T06:53:46.846Z,-0.84
2018-11-23T06:56:15.442Z,-0.90
2018-11-23T06:58:44.049Z,-0.81
2018-11-23T07:01:13.162Z,-0.82
2018-11-23T07:03:41.818Z,-0.68
2018-11-23T07:06:10.439Z,-0.78
2018-11-23T07:08:39.070Z,-0.70
2018-11-23T07:11:07.707Z,-0.81
2018-11-23T07:13:36.393Z,-0.75
2018-11-23T07:16:05.073Z,-0.73
2018-11-23T07:18:34.297Z,-0.87
2018-11-23T07:21:02.865Z,-0.91
2018-11-23T07:23:38.392Z,-1.00
2018-11-23T07:26:07.195Z,-0.96
2018-11-23T07:28:35.814Z,-0.79
2018-11-23T07:31:05.328Z,-0.78
2018-11-23T07:33:34.186Z,-0.72
2018-11-23T07:36:02.766Z,-0.82
2018-11-23T07:38:31.667Z,-0.72
2018-11-23T07:41:11.392Z,-0.62
2018-11-23T07:43:40.058Z,-0.25
2018-11-23T07:46:08.674Z,-0.33
2018-11-23T07:48:37.307Z,-0.06
2018-11-23T07:51:06.431Z,0.11
2018-11-23T07:53:35.034Z,0.11
2018-11-23T07:56:03.617Z,0.18
2018-11-23T07:58:39.312Z,0.22
2018-11-23T08:01:08.152Z,0.29
2018-11-23T08:03:36.834Z,0.44
2018-11-23T08:06:05.513Z,0.37
2018-11-23T08:08:34.148Z,0.40
2018-11-23T08:11:06.711Z,0.38
2018-11-23T08:13:35.381Z,0.57
2018-11-23T08:16:08.825Z,0.64
2018-11-23T08:18:37.571Z,0.67
2018-11-23T08:21:12.451Z,0.67
2018-11-23T08:23:47.434Z,0.74
2018-11-23T08:26:16.301Z,0.79
2018-11-23T08:28:48.458Z,0.91
2018-11-23T08:31:17.157Z,0.93
2018-11-23T08:33:45.805Z,1.03
2018-11-23T08:36:14.380Z,1.17
2018-11-23T08:38:42.998Z,1.24
2018-11-23T08:41:16.383Z,1.28
2018-11-23T08:43:45.203Z,1.25
2018-11-23T08:46:13.782Z,1.33
2018-11-23T08:48:42.410Z,1.41
2018-11-23T08:51:10.991Z,1.46
2018-11-23T08:53:39.719Z,1.54
2018-11-23T08:56:09.443Z,1.61
2018-11-23T08:58:38.003Z,1.72
2018-11-23T09:01:07.906Z,1.77
2018-11-23T09:03:36.487Z,1.93
2018-11-23T09:06:05.121Z,1.97
2018-11-23T09:08:33.765Z,2.02
2018-11-23T09:11:02.572Z,1.99
2018-11-23T09:13:31.324Z,2.04
2018-11-23T09:15:59.996Z,2.16
2018-11-23T09:18:28.623Z,2.16
2018-11-23T09:20:57.259Z,2.24
2018-11-23T09:23:25.854Z,2.29
2018-11-23T09:25:54.566Z,2.37
2018-11-23T09:28:23.162Z,2.38
2018-11-23T09:30:51.768Z,2.47
2018-11-23T09:33:20.397Z,2.50
2018-11-23T09:35:49.058Z,2.56
2018-11-23T09:38:17.750Z,2.62
2018-11-23T09:40:46.370Z,2.66
2018-11-23T09:43:14.957Z,2.72
2018-11-23T09:45:43.615Z,2.85
2018-11-23T09:48:12.213Z,2.94
2018-11-23T09:50:40.852Z,3.01
2018-11-23T09:53:09.467Z,3.09
2018-11-23T09:55:38.726Z,3.17
2018-11-23T09:58:07.298Z,3.23
2018-11-23T10:00:37.176Z,3.34
2018-11-23T10:03:08.798Z,3.48
2018-11-23T10:05:38.201Z,3.53
2018-11-23T10:08:12.230Z,3.60
2018-11-23T10:10:46.743Z,3.67
2018-11-23T10:13:16.691Z,3.68
2018-11-23T10:15:48.858Z,3.78
2018-11-23T10:18:17.440Z,3.76
2018-11-23T10:20:54.068Z,3.86
2018-11-23T10:23:24.575Z,4.12
2018-11-23T10:25:55.707Z,4.14
2018-11-23T10:28:27.454Z,4.16
2018-11-23T10:30:56.262Z,4.19
2018-11-23T10:33:29.964Z,4.27
2018-11-23T10:36:00.735Z,4.28
2018-11-23T10:38:31.198Z,4.40
2018-11-23T10:40:59.926Z,4.44
2018-11-23T10:43:28.512Z,4.54
2018-11-23T10:46:04.649Z,4.62
2018-11-23T10:48:34.108Z,4.61
2018-11-23T10:51:07.597Z,4.83
2018-11-23T10:53:38.241Z,4.93
2018-11-23T10:56:07.525Z,4.96
2018-11-23T10:58:41.775Z,5.06
2018-11-23T11:01:18.908Z,5.20
2018-11-23T11:03:55.291Z,5.25
2018-11-23T11:06:30.442Z,5.32
2018-11-23T11:09:03.275Z,5.34
2018-11-23T11:11:39.021Z,5.49
2018-11-23T11:14:14.239Z,5.57
2018-11-23T11:16:45.923Z,5.59
2018-11-23T11:19:14.487Z,5.59
2018-11-23T11:21:43.097Z,5.67
2018-11-23T11:24:11.687Z,5.73
2018-11-23T11:26:40.314Z,5.76
2018-11-23T11:29:08.901Z,5.76
2018-11-23T11:31:37.534Z,5.98
2018-11-23T11:34:06.374Z,6.00
2018-11-23T11:36:35.000Z,6.04
2018-11-23T11:39:05.035Z,6.11
2018-11-23T11:41:33.639Z,6.20
2018-11-23T11:44:02.324Z,6.29
2018-11-23T11:46:30.960Z,6.40
2018-11-23T11:48:59.530Z,6.54
2018-11-23T11:51:28.142Z,6.51
2018-11-23T11:53:56.740Z,6.61
2018-11-23T11:56:26.078Z,6.65
2018-11-23T11:58:54.651Z,6.72
2018-11-23T12:01:24.957Z,6.81
2018-11-23T12:03:53.609Z,6.91
2018-11-23T12:06:22.188Z,6.95
2018-11-23T12:08:50.878Z,7.07
2018-11-23T12:11:19.555Z,7.09
2018-11-23T12:13:48.202Z,7.19
2018-11-23T12:16:16.791Z,7.23
2018-11-23T12:18:45.420Z,7.25
2018-11-23T12:21:14.022Z,7.24
2018-11-23T12:23:42.850Z,7.31
2018-11-23T12:26:11.447Z,7.60
2018-11-23T12:28:40.060Z,7.59
2018-11-23T12:31:08.678Z,7.64
2018-11-23T12:33:37.784Z,7.65
2018-11-23T12:36:06.421Z,7.75
2018-11-23T12:38:35.018Z,7.85
2018-11-23T12:41:03.598Z,7.93
2018-11-23T12:43:32.217Z,7.93
2018-11-23T12:46:00.818Z,7.86
2018-11-23T12:48:29.426Z,7.98
2018-11-23T12:50:58.008Z,8.09
2018-11-23T12:53:26.643Z,8.13
2018-11-23T12:55:55.226Z,8.23
2018-11-23T12:58:23.839Z,8.35
2018-11-23T13:00:52.379Z,8.42
2018-11-23T13:03:21.002Z,8.37
2018-11-23T13:05:49.570Z,8.44
2018-11-23T13:08:18.204Z,8.47
2018-11-23T13:10:46.822Z,8.41
2018-11-23T13:13:15.444Z,8.50
2018-11-23T13:15:44.029Z,8.55
2018-11-23T13:18:12.797Z,8.63
2018-11-23T13:20:42.074Z,8.57
2018-11-23T13:23:10.996Z,8.56
2018-11-23T13:25:39.575Z,8.72
2018-11-23T13:28:08.213Z,8.80
2018-11-23T13:30:37.316Z,8.76
2018-11-23T13:33:06.913Z,8.79
2018-11-23T13:35:35.494Z,8.82
2018-11-23T13:38:07.589Z,8.83
2018-11-23T13:40:36.257Z,8.71
2018-11-23T13:43:06.820Z,8.69
2018-11-23T13:45:35.844Z,8.63
2018-11-23T13:48:04.458Z,8.63
2018-11-23T13:50:40.393Z,8.60
2018-11-23T13:53:09.239Z,8.50
2018-11-23T13:55:37.850Z,8.42
2018-11-23T13:58:06.638Z,8.41
2018-11-23T14:00:35.222Z,8.44
2018-11-23T14:03:06.315Z,8.33
2018-11-23T14:05:34.939Z,8.30
2018-11-23T14:08:03.954Z,8.29
2018-11-23T14:10:32.832Z,8.25
2018-11-23T14:13:01.482Z,8.20
2018-11-23T14:15:31.429Z,8.18
2018-11-23T14:18:00.726Z,8.14
2018-11-23T14:20:29.718Z,8.16
2018-11-23T14:22:58.293Z,8.15
2018-11-23T14:25:28.609Z,8.01
2018-11-23T14:27:57.721Z,7.84
2018-11-23T14:30:27.838Z,7.85
2018-11-23T14:32:56.563Z,7.79
2018-11-23T14:35:26.979Z,7.66
2018-11-23T14:37:56.431Z,7.68
2018-11-23T14:40:25.275Z,7.58
2018-11-23T14:42:54.216Z,7.57
2018-11-23T14:45:25.594Z,7.54
2018-11-23T14:47:55.276Z,7.45
2018-11-23T14:50:25.405Z,7.44
2018-11-23T14:52:54.986Z,7.42
2018-11-23T14:55:23.790Z,7.34
2018-11-23T14:57:52.414Z,7.29
2018-11-23T15:00:23.731Z,7.25
2018-11-23T15:02:53.755Z,7.23
2018-11-23T15:05:22.384Z,7.18
2018-11-23T15:07:51.016Z,7.09
2018-11-23T15:10:21.183Z,7.12
2018-11-23T15:12:51.118Z,7.05
2018-11-23T15:15:20.973Z,6.95
2018-11-23T15:17:50.494Z,6.85
2018-11-23T15:20:20.796Z,6.83
2018-11-23T15:22:51.114Z,6.81
2018-11-23T15:25:19.750Z,6.77
2018-11-23T15:27:48.349Z,6.72
2018-11-23T15:30:22.383Z,6.70
2018-11-23T15:32:50.977Z,6.60
2018-11-23T15:35:19.573Z,6.55
2018-11-23T15:37:48.138Z,6.47
2018-11-23T15:40:20.965Z,6.47
2018-11-23T15:42:50.403Z,6.42
2018-11-23T15:45:23.243Z,6.34
2018-11-23T15:47:52.082Z,6.30
2018-11-23T15:50:22.022Z,6.23
2018-11-23T15:52:50.767Z,6.21
2018-11-23T15:55:21.756Z,6.20
2018-11-23T15:57:51.338Z,6.20
2018-11-23T16:00:22.914Z,6.16
2018-11-23T16:02:51.677Z,6.06
2018-11-23T16:05:20.436Z,6.01
2018-11-23T16:07:49.488Z,6.01
2018-11-23T16:10:20.509Z,5.91
2018-11-23T16:12:50.190Z,5.88
2018-11-23T16:15:19.636Z,5.87
2018-11-23T16:17:48.685Z,5.82
2018-11-23T16:20:20.114Z,5.80
2018-11-23T16:22:49.954Z,5.68
2018-11-23T16:25:18.687Z,5.70
2018-11-23T16:27:48.662Z,5.65
2018-11-23T16:30:21.485Z,5.65
2018-11-23T16:32:51.257Z,5.66
2018-11-23T16:35:21.621Z,5.58
2018-11-23T16:37:50.685Z,5.57
2018-11-23T16:40:21.059Z,5.45
2018-11-23T16:42:49.668Z,5.46
2018-11-23T16:45:22.388Z,5.46
2018-11-23T16:47:51.701Z,5.43
2018-11-23T16:50:20.271Z,5.38
2018-11-23T16:52:49.806Z,5.35
2018-11-23T16:55:19.943Z,5.34
2018-11-23T16:57:51.367Z,5.30
2018-11-23T17:00:22.412Z,5.31
2018-11-23T17:02:51.081Z,5.21
2018-11-23T17:05:21.286Z,5.27
2018-11-23T17:07:49.890Z,5.23
2018-11-23T17:10:19.389Z,5.23
2018-11-23T17:12:52.602Z,5.19
2018-11-23T17:15:23.590Z,5.17
2018-11-23T17:17:52.349Z,5.11
2018-11-23T17:20:22.292Z,5.14
2018-11-23T17:22:51.933Z,5.16
2018-11-23T17:25:21.718Z,5.15
2018-11-23T17:27:51.230Z,5.04
2018-11-23T17:30:21.387Z,5.13
2018-11-23T17:32:49.983Z,5.12
2018-11-23T17:35:26.881Z,5.11
2018-11-23T17:37:56.286Z,5.03
2018-11-23T17:40:27.166Z,5.05
2018-11-23T17:43:00.369Z,4.98
2018-11-23T17:45:31.066Z,5.00
2018-11-23T17:47:59.893Z,4.98
2018-11-23T17:50:32.924Z,4.96
2018-11-23T17:53:07.217Z,4.92
2018-11-23T17:55:36.033Z,4.86
2018-11-23T17:58:04.849Z,4.83
2018-11-23T18:00:39.194Z,4.79
2018-11-23T18:03:03.901Z,4.84
2018-11-23T18:05:37.159Z,4.70
2018-11-23T18:08:06.319Z,4.69
2018-11-23T18:10:35.216Z,4.68
2018-11-23T18:13:03.998Z,4.68
2018-11-23T18:15:33.818Z,4.70
2018-11-23T18:18:03.425Z,4.66
2018-11-23T18:20:32.548Z,4.65
2018-11-23T18:23:05.721Z,4.61
2018-11-23T18:25:36.914Z,4.65
2018-11-23T18:28:05.837Z,4.62
2018-11-23T18:30:35.082Z,4.63
2018-11-23T18:33:06.642Z,4.68
2018-11-23T18:35:35.238Z,4.62
2018-11-23T18:38:03.912Z,4.58
2018-11-23T18:40:37.434Z,4.57
2018-11-23T18:43:01.629Z,4.53
2018-11-23T18:45:30.312Z,4.60
2018-11-23T18:47:59.406Z,4.56
2018-11-23T18:50:27.989Z,4.56
2018-11-23T18:52:56.606Z,4.53
2018-11-23T18:55:25.194Z,4.48
2018-11-23T18:57:54.109Z,4.53
2018-11-23T19:00:22.707Z,4.50
2018-11-23T19:02:51.326Z,4.50
2018-11-23T19:05:21.416Z,4.49
2018-11-23T19:07:50.043Z,4.49
2018-11-23T19:10:18.634Z,4.44
2018-11-23T19:12:47.277Z,4.53
2018-11-23T19:15:25.322Z,4.50
2018-11-23T19:17:46.545Z,4.48
2018-11-23T19:22:52.466Z,4.51
2018-11-23T19:25:21.070Z,4.57
2018-11-23T19:27:49.665Z,4.47
2018-11-23T19:30:28.055Z,4.46
2018-11-23T19:32:50.138Z,4.48
2018-11-23T19:35:19.140Z,4.41
2018-11-23T19:37:47.718Z,4.41
2018-11-23T19:40:16.757Z,4.42
2018-11-23T19:42:45.861Z,4.42
2018-11-23T19:45:17.617Z,4.41
2018-11-23T19:47:46.177Z,4.40
2018-11-23T19:50:18.355Z,4.38
2018-11-23T19:52:46.982Z,4.38
2018-11-23T19:55:17.036Z,4.43
2018-11-23T19:57:45.610Z,4.38
2018-11-23T20:00:24.001Z,4.37
2018-11-23T20:02:56.406Z,4.34
2018-11-23T20:05:40.391Z,4.33
2018-11-23T20:08:22.436Z,4.26
2018-11-23T20:10:57.693Z,4.31
2018-11-23T20:13:35.614Z,4.31
2018-11-23T20:16:09.296Z,4.29
2018-11-23T20:18:44.254Z,4.22
2018-11-23T20:21:21.569Z,4.24
2018-11-23T20:23:58.789Z,4.29
2018-11-23T20:26:27.573Z,4.25
2018-11-23T20:28:57.405Z,4.23
2018-11-23T20:31:26.082Z,4.22
2018-11-23T20:33:54.757Z,4.14
2018-11-23T20:36:27.846Z,4.15
2018-11-23T20:38:58.527Z,4.22
2018-11-23T20:41:27.525Z,4.21
2018-11-23T20:43:56.143Z,4.14
2018-11-23T20:46:24.759Z,4.27
2018-11-23T20:48:53.317Z,4.12
2018-11-23T20:51:21.920Z,4.21
2018-11-23T20:53:50.566Z,4.22
2018-11-23T20:56:19.208Z,4.15
2018-11-23T20:58:48.342Z,4.15
2018-11-23T21:01:17.614Z,4.13
2018-11-23T21:03:46.202Z,4.11
2018-11-23T21:06:14.823Z,4.07
2018-11-23T21:08:43.407Z,4.05
2018-11-23T21:11:13.548Z,4.04
2018-11-23T21:13:44.076Z,4.04
2018-11-23T21:16:12.744Z,4.07
2018-11-23T21:18:41.452Z,4.07
2018-11-23T21:21:10.170Z,4.11
2018-11-23T21:23:38.762Z,4.02
2018-11-23T21:26:07.384Z,4.07
2018-11-23T21:28:35.965Z,4.01
2018-11-23T21:31:04.596Z,4.09
2018-11-23T21:33:35.980Z,4.06
2018-11-23T21:36:07.170Z,4.06
2018-11-23T21:38:39.810Z,4.15
2018-11-23T21:41:08.519Z,4.16
2018-11-23T21:43:37.099Z,4.11
2018-11-23T21:46:08.165Z,4.05
2018-11-23T21:48:37.123Z,4.04
2018-11-23T21:51:06.328Z,4.03
2018-11-23T21:53:38.291Z,4.02
2018-11-23T21:56:09.943Z,3.97
2018-11-23T21:58:40.589Z,3.93
2018-11-23T22:01:09.309Z,3.89
2018-11-23T22:03:39.834Z,3.87
2018-11-23T22:06:08.594Z,3.87
2018-11-23T22:08:37.420Z,3.87
2018-11-23T22:11:06.442Z,3.88
2018-11-23T22:13:34.995Z,3.82
2018-11-23T22:16:03.606Z,3.77
2018-11-23T22:18:32.403Z,3.76
2018-11-23T22:21:00.991Z,3.78
2018-11-23T22:23:29.583Z,3.77
2018-11-23T22:25:58.904Z,3.75
2018-11-23T22:28:28.710Z,3.69
2018-11-23T22:30:57.945Z,3.56
2018-11-23T22:33:28.031Z,3.75
2018-11-23T22:35:58.493Z,3.75
2018-11-23T22:38:28.314Z,3.62
2018-11-23T22:40:56.903Z,3.67
2018-11-23T22:43:26.777Z,3.60
2018-11-23T22:45:56.916Z,3.66
2018-11-23T22:48:25.639Z,3.61
2018-11-23T22:50:57.958Z,3.72
2018-11-23T22:53:27.291Z,3.75
2018-11-23T22:55:55.895Z,3.64
2018-11-23T22:58:25.740Z,3.54
2018-11-23T23:00:59.695Z,3.60
2018-11-23T23:03:28.597Z,3.54
2018-11-23T23:05:58.843Z,3.48
2018-11-23T23:08:28.846Z,3.47
2018-11-23T23:10:58.330Z,3.60
2018-11-23T23:13:27.289Z,3.56
2018-11-23T23:15:55.898Z,3.55
2018-11-23T23:18:26.236Z,3.71
2018-11-23T23:20:56.161Z,3.62
2018-11-23T23:23:24.778Z,3.61
2018-11-23T23:25:54.220Z,3.52
2018-11-23T23:28:22.916Z,3.56
2018-11-23T23:30:52.026Z,3.51
2018-11-23T23:33:20.814Z,3.53
2018-11-23T23:35:50.454Z,3.36
2018-11-23T23:38:19.370Z,3.47
2018-11-23T23:40:48.126Z,3.42
2018-11-23T23:43:18.137Z,3.43
2018-11-23T23:45:47.477Z,3.38
2018-11-23T23:48:17.168Z,3.36
2018-11-23T23:50:46.006Z,3.38
2018-11-23T23:53:15.495Z,3.32
2018-11-23T23:55:44.771Z,3.44
2018-11-23T23:58:15.411Z,3.31
